Time;durP1;ratioP1;P1;durP2;ratioP2;P2;SDS_P1;SDS_P2;PMS_P1;PMS_P2;Temp;Humidity;BMP_temperature;BMP_pressure;BME280_temperature;BME280_humidity;BME280_pressure;Samples;Min_cycle;Max_cycle;Signal;HPM_P1;HPM_P2
2022/12/31 00:00:40;;;;;;;1999.90;999.90;;;13.20;99.90;;;;;;4999301;28;20450;-70
2022/12/31 00:03:08;;;;;;;1999.90;999.90;;;13.20;99.90;;;;;;5006648;28;20455;-70
2022/12/31 00:05:36;;;;;;;1999.90;999.90;;;13.20;99.90;;;;;;5004247;28;20446;-69
2022/12/31 00:08:03;;;;;;;1999.90;999.90;;;13.20;99.90;;;;;;5007436;28;20450;-69
2022/12/31 00:10:38;;;;;;;1999.90;999.90;;;13.20;99.90;;;;;;5001573;28;20461;-69
2022/12/31 00:13:05;;;;;;;1999.90;999.90;;;13.30;99.90;;;;;;5007552;28;20552;-69
2022/12/31 00:15:32;;;;;;;1999.90;999.90;;;13.30;99.90;;;;;;4999869;28;20957;-69
2022/12/31 00:17:58;;;;;;;1999.90;999.90;;;13.30;99.90;;;;;;5007017;28;21002;-70
2022/12/31 00:20:25;;;;;;;1999.90;999.90;;;13.30;99.90;;;;;;5005529;28;20492;-70
2022/12/31 00:22:52;;;;;;;1999.90;999.90;;;13.30;99.90;;;;;;5006991;28;21060;-69
2022/12/31 00:25:19;;;;;;;1999.90;999.90;;;13.30;99.90;;;;;;5007410;28;20825;-70
2022/12/31 00:27:47;;;;;;;1999.90;999.90;;;13.40;99.90;;;;;;5007288;28;20476;-71
2022/12/31 00:30:14;;;;;;;1999.90;999.90;;;13.40;99.90;;;;;;5006908;28;20441;-69
2022/12/31 00:32:41;;;;;;;1999.90;999.90;;;13.40;99.90;;;;;;5007366;28;20449;-70
2022/12/31 00:35:08;;;;;;;1999.90;999.90;;;13.40;99.90;;;;;;5009888;28;20818;-71
2022/12/31 00:37:35;;;;;;;1999.90;999.90;;;13.40;99.90;;;;;;5021851;28;20456;-70
2022/12/31 00:40:02;;;;;;;1999.90;999.90;;;13.50;99.90;;;;;;5028346;28;20476;-72
2022/12/31 00:42:29;;;;;;;1999.90;999.90;;;13.50;99.90;;;;;;5027429;28;20437;-70
2022/12/31 00:44:57;;;;;;;1999.90;999.90;;;13.60;99.90;;;;;;5027910;28;20448;-71
2022/12/31 00:47:25;;;;;;;1999.90;999.90;;;13.70;99.90;;;;;;5027102;28;20461;-70
2022/12/31 00:49:51;;;;;;;1999.90;999.90;;;13.70;99.90;;;;;;5027387;28;21245;-71
2022/12/31 00:52:18;;;;;;;1999.90;999.90;;;13.60;99.90;;;;;;5027839;28;20452;-70
2022/12/31 00:54:45;;;;;;;1999.90;999.90;;;13.70;99.90;;;;;;5028517;28;20445;-72
2022/12/31 00:57:12;;;;;;;1999.90;999.90;;;13.70;99.90;;;;;;5028155;28;20464;-72
2022/12/31 00:59:39;;;;;;;1999.90;999.90;;;13.70;99.90;;;;;;5026873;28;20579;-71
2022/12/31 01:02:07;;;;;;;1999.90;999.90;;;13.70;99.90;;;;;;5026941;28;20440;-70
2022/12/31 01:04:34;;;;;;;1999.90;999.90;;;13.80;99.90;;;;;;5027555;28;20441;-71
2022/12/31 01:07:01;;;;;;;1999.90;999.90;;;13.80;99.90;;;;;;5026279;28;20461;-70
2022/12/31 01:09:28;;;;;;;1999.90;999.90;;;13.80;99.90;;;;;;5017848;28;20826;-71
2022/12/31 01:11:54;;;;;;;1999.90;999.90;;;13.70;99.90;;;;;;5027080;28;20448;-70
2022/12/31 01:14:21;;;;;;;1999.90;999.90;;;13.70;99.90;;;;;;5027030;28;20472;-71
2022/12/31 01:16:51;;;;;;;1999.90;999.90;;;13.70;99.90;;;;;;5027010;28;20493;-70
2022/12/31 01:19:20;;;;;;;1999.90;999.90;;;13.70;99.90;;;;;;5025962;28;20495;-70
2022/12/31 01:21:48;;;;;;;1999.90;999.90;;;13.60;99.90;;;;;;5027151;28;20448;-70
2022/12/31 01:24:16;;;;;;;1999.90;999.90;;;13.60;99.90;;;;;;5025580;28;20437;-70
2022/12/31 01:26:43;;;;;;;1999.90;999.90;;;13.60;99.90;;;;;;5027140;28;20464;-72
2022/12/31 01:29:10;;;;;;;1999.90;999.90;;;13.60;99.90;;;;;;5012592;28;20453;-71
2022/12/31 01:31:38;;;;;;;1999.90;999.90;;;13.60;99.90;;;;;;5001420;28;20454;-70
2022/12/31 01:34:06;;;;;;;1999.90;999.90;;;13.60;99.90;;;;;;5002758;28;20430;-70
2022/12/31 01:36:36;;;;;;;1999.90;999.90;;;13.70;99.90;;;;;;5005262;28;20466;-70
2022/12/31 01:39:05;;;;;;;1999.90;999.90;;;13.70;99.90;;;;;;5015710;28;20503;-70
2022/12/31 01:41:34;;;;;;;1999.90;999.90;;;13.80;99.90;;;;;;5025058;28;20449;-70
2022/12/31 01:44:03;;;;;;;1999.90;999.90;;;13.90;99.90;;;;;;5025466;28;21174;-70
2022/12/31 01:46:37;;;;;;;1999.90;999.90;;;14.00;99.90;;;;;;5024907;28;20560;-70
2022/12/31 01:49:10;;;;;;;1999.90;999.90;;;13.90;99.90;;;;;;5024403;28;20437;-70
2022/12/31 01:51:41;;;;;;;1999.90;999.90;;;13.90;99.90;;;;;;5024743;28;20464;-70
2022/12/31 01:54:10;;;;;;;1999.90;999.90;;;14.00;99.90;;;;;;5025002;28;20453;-70
2022/12/31 01:56:40;;;;;;;1999.90;999.90;;;14.00;99.90;;;;;;5024735;28;20469;-71
2022/12/31 01:59:10;;;;;;;1999.90;999.90;;;13.90;99.90;;;;;;5024572;28;20484;-70
2022/12/31 02:01:38;;;;;;;1999.90;999.90;;;13.80;99.90;;;;;;5024856;28;20557;-75
2022/12/31 02:04:09;;;;;;;1999.90;999.90;;;13.80;99.90;;;;;;5024655;28;20453;-71
2022/12/31 02:06:41;;;;;;;1999.90;999.90;;;13.80;99.90;;;;;;5023863;28;20464;-70
2022/12/31 02:09:08;;;;;;;1999.90;999.90;;;13.70;99.90;;;;;;5004313;28;20442;-70
2022/12/31 02:11:36;;;;;;;1999.90;999.90;;;13.60;99.90;;;;;;5005069;28;20461;-69
2022/12/31 02:14:07;;;;;;;1999.90;999.90;;;13.60;99.90;;;;;;5004515;28;20464;-70
2022/12/31 02:16:44;;;;;;;1999.90;999.90;;;13.60;99.90;;;;;;5005007;28;20484;-69
2022/12/31 02:19:45;;;;;;;1999.90;999.90;;;13.50;99.90;;;;;;5004238;28;20477;-70
2022/12/31 02:22:23;;;;;;;1999.90;999.90;;;13.60;99.90;;;;;;5005059;28;20457;-70
2022/12/31 02:25:18;;;;;;;1999.90;999.90;;;13.50;99.90;;;;;;5004911;28;20441;-71
2022/12/31 02:27:57;;;;;;;1999.90;999.90;;;13.60;99.90;;;;;;5006155;28;20466;-71
2022/12/31 02:30:26;;;;;;;1999.90;999.90;;;13.50;99.90;;;;;;5008162;28;20940;-71
2022/12/31 02:33:08;;;;;;;1999.90;999.90;;;13.50;99.90;;;;;;5008764;28;21295;-70
2022/12/31 02:35:44;;;;;;;1999.90;999.90;;;13.60;99.90;;;;;;5008503;28;20850;-70
2022/12/31 02:38:15;;;;;;;1999.90;999.90;;;13.70;99.90;;;;;;5016492;28;21150;-70
2022/12/31 02:40:43;;;;;;;1999.90;999.90;;;13.80;99.90;;;;;;5025089;28;20476;-71
2022/12/31 02:43:09;;;;;;;1999.90;999.90;;;13.90;99.90;;;;;;5028150;28;20444;-71
2022/12/31 02:45:41;;;;;;;1999.90;999.90;;;13.90;99.90;;;;;;5011798;28;20467;-71
2022/12/31 02:48:17;;;;;;;1999.90;999.90;;;14.00;99.90;;;;;;5001506;28;20448;-71
2022/12/31 02:50:54;;;;;;;1999.90;999.90;;;14.00;99.90;;;;;;5009702;28;21007;-71
2022/12/31 02:53:44;;;;;;;1999.90;999.90;;;14.00;99.90;;;;;;5009242;28;20477;-71
2022/12/31 02:56:18;;;;;;;1999.90;999.90;;;14.00;99.90;;;;;;4999298;28;20580;-71
2022/12/31 03:04:37;;;;;;;1999.90;999.90;;;13.90;99.90;;;;;;5010712;28;20993;-71
2022/12/31 03:07:06;;;;;;;1999.90;999.90;;;13.90;99.90;;;;;;5009397;28;20495;-71
2022/12/31 03:09:34;;;;;;;1999.90;999.90;;;13.80;99.90;;;;;;5008953;28;20990;-71
2022/12/31 03:14:45;;;;;;;1999.90;999.90;;;13.50;99.90;;;;;;5010817;28;20504;-72
2022/12/31 03:17:13;;;;;;;1999.90;999.90;;;13.50;99.90;;;;;;5010758;28;20454;-71
2022/12/31 03:22:27;;;;;;;1999.90;999.90;;;13.30;99.90;;;;;;5010443;28;20421;-72
2022/12/31 03:27:40;;;;;;;1999.90;999.90;;;13.40;99.90;;;;;;5010655;28;20440;-71
2022/12/31 03:30:08;;;;;;;1999.90;999.90;;;13.50;99.90;;;;;;5009729;28;20445;-72
2022/12/31 03:32:36;;;;;;;1999.90;999.90;;;13.50;99.90;;;;;;5010389;28;20444;-71
2022/12/31 03:35:03;;;;;;;1999.90;999.90;;;13.50;99.90;;;;;;5010485;28;20445;-72
2022/12/31 03:37:30;;;;;;;1999.90;999.90;;;13.50;99.90;;;;;;5010369;28;20461;-71
2022/12/31 03:39:57;;;;;;;1999.90;999.90;;;13.40;99.90;;;;;;5009503;28;20473;-72
2022/12/31 03:42:23;;;;;;;1999.90;999.90;;;13.40;99.90;;;;;;5009771;28;21134;-71
2022/12/31 03:44:50;;;;;;;1999.90;999.90;;;13.60;99.90;;;;;;5010282;28;20442;-71
2022/12/31 03:47:17;;;;;;;1999.90;999.90;;;13.80;99.90;;;;;;5010294;28;20466;-71
2022/12/31 03:49:45;;;;;;;1999.90;999.90;;;13.80;99.90;;;;;;5009643;28;20446;-71
2022/12/31 03:52:12;;;;;;;1999.90;999.90;;;13.80;99.90;;;;;;5009901;28;20441;-71
2022/12/31 03:54:38;;;;;;;1999.90;999.90;;;13.80;99.90;;;;;;5010165;28;20445;-71
2022/12/31 03:57:05;;;;;;;1999.90;999.90;;;14.00;99.90;;;;;;5010142;28;20468;-71
2022/12/31 03:59:32;;;;;;;1999.90;999.90;;;14.10;99.90;;;;;;5009473;28;20453;-71
2022/12/31 04:01:59;;;;;;;1999.90;999.90;;;14.20;99.90;;;;;;5010102;28;20549;-71
2022/12/31 04:04:25;;;;;;;1999.90;999.90;;;14.20;99.90;;;;;;5009997;28;20461;-72
2022/12/31 04:06:53;;;;;;;1999.90;999.90;;;14.30;99.90;;;;;;5010046;28;20484;-72
2022/12/31 04:09:20;;;;;;;1999.90;999.90;;;14.40;99.90;;;;;;5009008;28;20454;-72
2022/12/31 04:11:47;;;;;;;1999.90;999.90;;;14.40;99.90;;;;;;5009737;28;20441;-72
2022/12/31 04:14:15;;;;;;;1999.90;999.90;;;14.50;99.90;;;;;;5009371;28;20445;-71
2022/12/31 04:16:42;;;;;;;1999.90;999.90;;;14.60;99.90;;;;;;5009794;28;20981;-71
2022/12/31 04:19:09;;;;;;;1999.90;999.90;;;14.60;99.90;;;;;;5008912;28;20450;-71
2022/12/31 04:21:36;;;;;;;1999.90;999.90;;;14.70;99.90;;;;;;5009638;28;20477;-71
2022/12/31 04:24:05;;;;;;;1999.90;999.90;;;14.90;99.90;;;;;;5008897;28;20434;-71
2022/12/31 04:26:33;;;;;;;1999.90;999.90;;;14.80;99.90;;;;;;5009469;28;20466;-72
2022/12/31 04:28:59;;;;;;;1999.90;999.90;;;14.90;99.90;;;;;;5008479;28;20442;-72
2022/12/31 04:31:26;;;;;;;1999.90;999.90;;;15.00;99.90;;;;;;5009373;28;20433;-72
2022/12/31 04:33:53;;;;;;;1999.90;999.90;;;15.00;99.90;;;;;;5009099;28;20446;-72
2022/12/31 04:36:20;;;;;;;1999.90;999.90;;;15.00;99.90;;;;;;5009306;28;20462;-72
2022/12/31 04:38:47;;;;;;;1999.90;999.90;;;15.00;99.90;;;;;;5008293;28;20445;-71
2022/12/31 04:41:19;;;;;;;1999.90;999.90;;;15.10;99.90;;;;;;5009271;28;20478;-71
2022/12/31 04:43:48;;;;;;;1999.90;999.90;;;15.10;99.90;;;;;;5008780;28;20456;-71
2022/12/31 04:46:15;;;;;;;1999.90;999.90;;;15.10;99.90;;;;;;5009207;28;20829;-71
2022/12/31 04:48:42;;;;;;;1999.90;999.90;;;15.10;99.90;;;;;;5008417;28;20453;-71
2022/12/31 04:51:09;;;;;;;1999.90;999.90;;;15.10;99.90;;;;;;5008353;28;20433;-71
2022/12/31 04:53:36;;;;;;;1999.90;999.90;;;15.10;99.90;;;;;;5008764;28;20438;-71
2022/12/31 04:56:04;;;;;;;1999.90;999.90;;;15.00;99.90;;;;;;5008736;28;21045;-71
2022/12/31 04:58:32;;;;;;;1999.90;999.90;;;15.10;99.90;;;;;;5008128;28;20444;-72
2022/12/31 05:00:59;;;;;;;1999.90;999.90;;;15.20;99.90;;;;;;5008670;28;20482;-71
2022/12/31 05:03:27;;;;;;;1999.90;999.90;;;15.20;99.90;;;;;;5008479;28;20437;-71
2022/12/31 05:05:54;;;;;;;1999.90;999.90;;;15.30;99.90;;;;;;5008613;28;21116;-72
2022/12/31 05:08:21;;;;;;;1999.90;999.90;;;15.30;99.90;;;;;;5008213;28;20434;-71
2022/12/31 05:10:49;;;;;;;1999.90;999.90;;;15.30;99.90;;;;;;5008114;28;20456;-71
2022/12/31 05:13:16;;;;;;;1999.90;999.90;;;15.20;99.90;;;;;;5008114;28;20446;-72
2022/12/31 05:15:46;;;;;;;1999.90;999.90;;;15.20;99.90;;;;;;5008269;28;20476;-72
2022/12/31 05:18:13;;;;;;;1999.90;999.90;;;15.10;99.90;;;;;;5007826;28;20445;-71
2022/12/31 05:20:40;;;;;;;1999.90;999.90;;;15.00;99.90;;;;;;5008368;28;20489;-71
2022/12/31 05:23:07;;;;;;;1999.90;999.90;;;14.80;99.90;;;;;;5008360;28;20446;-71
2022/12/31 05:25:34;;;;;;;1999.90;999.90;;;14.80;99.90;;;;;;5008449;28;20468;-71
2022/12/31 05:28:01;;;;;;;1999.90;999.90;;;14.70;99.90;;;;;;5008545;28;20441;-71
2022/12/31 05:30:28;;;;;;;1999.90;999.90;;;14.70;99.90;;;;;;5007963;28;20997;-71
2022/12/31 05:32:56;;;;;;;1999.90;999.90;;;14.70;99.90;;;;;;5007750;28;20962;-71
2022/12/31 05:35:22;;;;;;;1999.90;999.90;;;14.70;99.90;;;;;;5008554;28;20466;-71
2022/12/31 05:37:49;;;;;;;1999.90;999.90;;;14.70;99.90;;;;;;5008162;28;20457;-71
2022/12/31 05:40:16;;;;;;;1999.90;999.90;;;14.70;99.90;;;;;;5007415;28;20480;-71
2022/12/31 05:42:43;;;;;;;1999.90;999.90;;;14.70;99.90;;;;;;5007747;28;20445;-70
2022/12/31 05:45:12;;;;;;;1999.90;999.90;;;14.60;99.90;;;;;;5008054;28;20441;-71
2022/12/31 05:47:39;;;;;;;1999.90;999.90;;;14.60;99.90;;;;;;5008050;28;20582;-71
2022/12/31 05:50:08;;;;;;;1999.90;999.90;;;14.50;99.90;;;;;;5007246;28;20449;-71
2022/12/31 05:52:35;;;;;;;1999.90;999.90;;;14.50;99.90;;;;;;5007410;28;20987;-71
2022/12/31 05:55:02;;;;;;;1999.90;999.90;;;14.50;99.90;;;;;;5007986;28;20450;-71
2022/12/31 05:57:28;;;;;;;1999.90;999.90;;;14.60;99.90;;;;;;5007885;28;20461;-71
2022/12/31 05:59:55;;;;;;;1999.90;999.90;;;14.60;99.90;;;;;;5007745;28;20932;-71
2022/12/31 06:02:22;;;;;;;1999.90;999.90;;;14.60;99.90;;;;;;5007011;28;20454;-71
2022/12/31 06:04:49;;;;;;;1999.90;999.90;;;14.60;99.90;;;;;;5008067;28;20456;-71
2022/12/31 06:07:17;;;;;;;1999.90;999.90;;;14.60;99.90;;;;;;5008088;28;20470;-70
2022/12/31 06:09:44;;;;;;;1999.90;999.90;;;14.60;99.90;;;;;;5006637;28;20485;-71
2022/12/31 06:12:11;;;;;;;1999.90;999.90;;;14.60;99.90;;;;;;5007349;28;20442;-71
2022/12/31 06:14:38;;;;;;;1999.90;999.90;;;14.70;99.90;;;;;;5007737;28;20476;-71
2022/12/31 06:17:04;;;;;;;1999.90;999.90;;;14.70;99.90;;;;;;5007807;28;20478;-71
2022/12/31 06:19:31;;;;;;;1999.90;999.90;;;14.70;99.90;;;;;;5006768;28;20445;-71
2022/12/31 06:21:58;;;;;;;1999.90;999.90;;;14.80;99.90;;;;;;5007482;28;20481;-71
2022/12/31 06:24:26;;;;;;;1999.90;999.90;;;14.80;99.90;;;;;;5007212;28;20904;-71
2022/12/31 06:26:53;;;;;;;1999.90;999.90;;;14.80;99.90;;;;;;5007506;28;20468;-71
2022/12/31 06:29:19;;;;;;;1999.90;999.90;;;14.80;99.90;;;;;;5007000;28;20560;-71
2022/12/31 06:31:46;;;;;;;1999.90;999.90;;;14.70;99.90;;;;;;5007753;28;20437;-71
2022/12/31 06:34:13;;;;;;;1999.90;999.90;;;14.70;99.90;;;;;;5018824;28;20476;-72
2022/12/31 06:36:40;;;;;;;1999.90;999.90;;;14.70;99.90;;;;;;5026944;28;20978;-71
2022/12/31 06:39:06;;;;;;;1999.90;999.90;;;14.60;99.90;;;;;;5026505;28;21061;-71
2022/12/31 06:41:35;;;;;;;1999.90;999.90;;;14.60;99.90;;;;;;5026900;28;21060;-71
2022/12/31 06:44:01;;;;;;;1999.90;999.90;;;14.60;99.90;;;;;;5027522;28;20648;-72
2022/12/31 06:46:28;;;;;;;1999.90;999.90;;;14.70;99.90;;;;;;5027297;28;20465;-71
2022/12/31 06:48:55;;;;;;;1999.90;999.90;;;14.70;99.90;;;;;;5026575;28;20444;-71
2022/12/31 06:51:22;;;;;;;1999.90;999.90;;;14.70;99.90;;;;;;5027034;28;20448;-71
2022/12/31 06:53:50;;;;;;;1999.90;999.90;;;14.70;99.90;;;;;;5027118;28;21149;-71
2022/12/31 06:56:19;;;;;;;1999.90;999.90;;;14.70;99.90;;;;;;5027310;28;20469;-70
2022/12/31 06:58:48;;;;;;;1999.90;999.90;;;14.70;99.90;;;;;;5026400;28;20506;-71
2022/12/31 07:01:36;;;;;;;1999.90;999.90;;;14.70;99.90;;;;;;5027035;28;20484;-71
2022/12/31 07:04:15;;;;;;;1999.90;999.90;;;14.60;99.90;;;;;;5026726;28;20806;-73
2022/12/31 07:06:48;;;;;;;1999.90;999.90;;;14.60;99.90;;;;;;5027536;28;20475;-72
2022/12/31 07:09:22;;;;;;;1999.90;999.90;;;14.60;99.90;;;;;;5027120;28;20449;-71
2022/12/31 07:12:00;;;;;;;1999.90;999.90;;;14.60;99.90;;;;;;5027646;28;20467;-71
2022/12/31 07:14:36;;;;;;;1999.90;999.90;;;14.60;99.90;;;;;;5029508;28;20467;-71
2022/12/31 07:17:10;;;;;;;1999.90;999.90;;;14.50;99.90;;;;;;5031121;28;20475;-70
2022/12/31 07:19:49;;;;;;;1999.90;999.90;;;14.50;99.90;;;;;;5029756;28;20453;-71
2022/12/31 07:22:17;;;;;;;1999.90;999.90;;;14.70;99.90;;;;;;5030056;28;20499;-71
2022/12/31 07:24:44;;;;;;;1999.90;999.90;;;14.70;99.90;;;;;;5031224;28;21029;-71
2022/12/31 07:27:28;;;;;;;1999.90;999.90;;;14.70;99.90;;;;;;5030281;28;20476;-70
2022/12/31 07:30:04;;;;;;;1999.90;999.90;;;14.80;99.90;;;;;;5029602;28;20445;-71
2022/12/31 07:32:42;;;;;;;1999.90;999.90;;;14.90;99.90;;;;;;5029896;28;20463;-70
2022/12/31 07:35:17;;;;;;;1999.90;999.90;;;15.00;99.90;;;;;;5030444;28;20453;-71
2022/12/31 07:37:54;;;;;;;1999.90;999.90;;;15.10;99.90;;;;;;5029849;28;20469;-71
2022/12/31 07:40:29;;;;;;;1999.90;999.90;;;15.10;99.90;;;;;;5029182;28;21109;-71
2022/12/31 07:43:08;;;;;;;1999.90;999.90;;;15.20;99.90;;;;;;5029543;28;20440;-70
2022/12/31 07:45:43;;;;;;;1999.90;999.90;;;15.20;99.90;;;;;;5029860;28;20445;-71
2022/12/31 07:48:22;;;;;;;1999.90;999.90;;;15.20;99.90;;;;;;5029466;28;20452;-70
2022/12/31 07:50:49;;;;;;;1999.90;999.90;;;15.30;99.90;;;;;;5029921;28;20456;-71
2022/12/31 07:53:17;;;;;;;1999.90;999.90;;;15.40;99.90;;;;;;5029711;28;20445;-71
2022/12/31 07:55:43;;;;;;;1999.90;999.90;;;15.40;99.90;;;;;;5029900;28;20463;-71
2022/12/31 07:58:19;;;;;;;1999.90;999.90;;;15.50;99.90;;;;;;5029400;28;20451;-71
2022/12/31 08:00:48;;;;;;;1999.90;999.90;;;15.40;99.90;;;;;;5029339;28;20495;-71
2022/12/31 08:03:26;;;;;;;1999.90;999.90;;;15.40;99.90;;;;;;5029327;28;20826;-71
2022/12/31 08:06:07;;;;;;;1999.90;999.90;;;15.50;99.90;;;;;;5029377;28;21009;-71
2022/12/31 08:08:42;;;;;;;1999.90;999.90;;;15.50;99.90;;;;;;5028699;28;20456;-71
2022/12/31 08:11:15;;;;;;;1999.90;999.90;;;15.50;99.90;;;;;;5029313;28;20448;-71
2022/12/31 08:13:42;;;;;;;1999.90;999.90;;;15.50;99.90;;;;;;5029215;28;21145;-72
2022/12/31 08:16:12;;;;;;;1999.90;999.90;;;15.60;99.90;;;;;;5029348;28;20473;-71
2022/12/31 08:18:39;;;;;;;1999.90;999.90;;;15.60;99.90;;;;;;5028630;28;20547;-72
2022/12/31 08:21:20;;;;;;;1999.90;999.90;;;15.70;99.90;;;;;;5029304;28;20491;-70
2022/12/31 08:23:53;;;;;;;1999.90;999.90;;;15.90;99.90;;;;;;5029079;28;20469;-72
2022/12/31 08:26:32;;;;;;;1999.90;999.90;;;15.90;99.90;;;;;;5028677;28;20464;-72
2022/12/31 08:29:11;;;;;;;1999.90;999.90;;;16.00;99.90;;;;;;5028622;28;20531;-71
2022/12/31 08:31:49;;;;;;;1999.90;999.90;;;16.10;99.90;;;;;;5029114;28;21282;-71
2022/12/31 08:34:26;;;;;;;1999.90;999.90;;;16.10;99.90;;;;;;5028862;28;20451;-71
2022/12/31 08:36:59;;;;;;;1999.90;999.90;;;16.10;99.90;;;;;;5029026;28;20461;-72
2022/12/31 08:39:41;;;;;;;1999.90;999.90;;;16.20;99.90;;;;;;5028231;28;20471;-71
2022/12/31 08:42:19;;;;;;;1999.90;999.90;;;16.20;99.90;;;;;;5028485;28;20473;-71
2022/12/31 08:44:55;;;;;;;1999.90;999.90;;;16.20;99.90;;;;;;5029169;28;20455;-72
2022/12/31 08:47:30;;;;;;;1999.90;999.90;;;16.20;99.90;;;;;;5028724;28;20475;-72
2022/12/31 08:49:58;;;;;;;1999.90;999.90;;;16.20;99.90;;;;;;5028231;28;20916;-72
2022/12/31 08:52:26;;;;;;;1999.90;999.90;;;16.20;99.90;;;;;;5028715;28;20452;-71
2022/12/31 08:54:54;;;;;;;1999.90;999.90;;;16.10;99.90;;;;;;5028766;28;20452;-71
2022/12/31 08:57:27;;;;;;;1999.90;999.90;;;16.20;99.90;;;;;;5019954;28;20857;-72
2022/12/31 09:00:02;;;;;;;1999.90;999.90;;;16.20;99.90;;;;;;5003317;28;20459;-72
2022/12/31 09:02:58;;;;;;;1999.90;999.90;;;16.30;99.90;;;;;;5007745;28;20487;-72
2022/12/31 09:05:30;;;;;;;1999.90;999.90;;;16.30;99.90;;;;;;4998406;28;20838;-72
2022/12/31 09:08:08;;;;;;;1999.90;999.90;;;16.40;99.90;;;;;;5008847;28;20986;-71
2022/12/31 09:10:43;;;;;;;1999.90;999.90;;;16.40;99.90;;;;;;5006416;28;20465;-71
2022/12/31 09:13:18;;;;;;;1999.90;999.90;;;16.40;99.90;;;;;;5009836;28;20467;-70
2022/12/31 09:15:50;;;;;;;1999.90;999.90;;;16.50;99.90;;;;;;5008355;28;20450;-72
2022/12/31 09:18:19;;;;;;;1999.90;999.90;;;16.60;99.90;;;;;;5008028;28;20445;-74
2022/12/31 09:20:46;;;;;;;1999.90;999.90;;;16.60;99.90;;;;;;5008629;28;20457;-72
2022/12/31 09:23:13;;;;;;;1999.90;999.90;;;16.70;99.90;;;;;;5008453;28;20489;-72
2022/12/31 09:25:46;;;;;;;1999.90;999.90;;;16.80;99.90;;;;;;5008351;28;20449;-72
2022/12/31 09:28:18;;;;;;;1999.90;999.90;;;16.90;99.90;;;;;;5007768;28;20837;-72
2022/12/31 09:30:51;;;;;;;1999.90;999.90;;;16.90;99.90;;;;;;5008187;28;20541;-72
2022/12/31 09:33:38;;;;;;;1999.90;999.90;;;17.10;99.90;;;;;;5008203;28;20457;-73
2022/12/31 09:36:07;;;;;;;1999.90;999.90;;;17.10;99.90;;;;;;5008387;28;20462;-73
2022/12/31 09:38:41;;;;;;;1999.90;999.90;;;17.30;99.90;;;;;;5007747;28;20517;-71
2022/12/31 09:41:22;;;;;;;1999.90;999.90;;;17.30;99.90;;;;;;5007724;28;20449;-73
2022/12/31 09:44:22;;;;;;;1999.90;999.90;;;17.30;99.90;;;;;;5006395;28;20446;-70
2022/12/31 09:47:37;;;;;;;1999.90;999.90;;;17.40;99.90;;;;;;5007017;28;20480;-71
2022/12/31 09:50:37;;;;;;;1999.90;999.90;;;17.50;99.90;;;;;;5005765;28;20477;-68
2022/12/31 09:53:36;;;;;;;1999.90;999.90;;;17.50;99.90;;;;;;5004969;28;20529;-71
2022/12/31 09:56:12;;;;;;;1999.90;999.90;;;17.60;99.90;;;;;;4979077;28;20473;-71
2022/12/31 09:58:45;;;;;;;1999.90;999.90;;;17.70;99.90;;;;;;5005322;28;20441;-71
2022/12/31 10:01:33;;;;;;;1999.90;999.90;;;17.80;99.90;;;;;;5007281;28;20452;-71
2022/12/31 10:04:24;;;;;;;1999.90;999.90;;;17.90;99.90;;;;;;5005961;28;20448;-71
2022/12/31 10:07:11;;;;;;;1999.90;999.90;;;18.00;99.90;;;;;;5004477;28;21246;-71
2022/12/31 10:09:50;;;;;;;1999.90;999.90;;;18.10;99.90;;;;;;5005345;28;20974;-70
2022/12/31 10:12:45;;;;;;;1999.90;999.90;;;18.20;99.90;;;;;;5005775;28;20448;-71
2022/12/31 10:15:34;;;;;;;1999.90;999.90;;;18.30;99.90;;;;;;4998675;28;20457;-71
2022/12/31 10:18:11;;;;;;;1999.90;999.90;;;18.40;99.90;;;;;;4991015;28;20477;-71
2022/12/31 10:20:51;;;;;;;1999.90;999.90;;;18.40;99.90;;;;;;4995834;28;20458;-71
2022/12/31 10:23:51;;;;;;;1999.90;999.90;;;18.40;99.90;;;;;;4987742;28;20478;-72
2022/12/31 10:26:34;;;;;;;1999.90;999.90;;;18.40;99.90;;;;;;4987085;28;20473;-70
2022/12/31 10:29:11;;;;;;;1999.90;999.90;;;18.50;99.90;;;;;;4996857;28;20434;-70
2022/12/31 10:31:40;;;;;;;1999.90;999.90;;;18.60;99.90;;;;;;4999739;28;20442;-70
2022/12/31 10:34:16;;;;;;;1999.90;999.90;;;18.70;99.90;;;;;;4998816;28;20433;-71
2022/12/31 10:36:53;;;;;;;1999.90;999.90;;;18.80;99.90;;;;;;5000231;28;20544;-70
2022/12/31 10:39:37;;;;;;;1999.90;999.90;;;19.10;99.90;;;;;;5006549;28;20438;-70
2022/12/31 10:42:36;;;;;;;1999.90;999.90;;;19.40;99.90;;;;;;5005027;28;20490;-71
2022/12/31 10:45:46;;;;;;;1999.90;999.90;;;19.70;99.90;;;;;;5006304;28;20448;-72
2022/12/31 10:49:02;;;;;;;1999.90;999.90;;;19.50;99.90;;;;;;4982583;28;20434;-71
2022/12/31 10:51:58;;;;;;;1999.90;999.90;;;19.20;99.90;;;;;;5008490;28;20806;-72
2022/12/31 10:55:07;;;;;;;1999.90;999.90;;;19.00;99.90;;;;;;5010413;28;20444;-72
2022/12/31 10:58:08;;;;;;;1999.90;999.90;;;18.80;99.90;;;;;;4999655;28;20466;-71
2022/12/31 11:00:40;;;;;;;1999.90;999.90;;;18.80;99.90;;;;;;4995447;28;20446;-71
2022/12/31 11:03:50;;;;;;;1999.90;999.90;;;18.80;99.90;;;;;;5011825;28;20470;-71
2022/12/31 11:06:52;;;;;;;1999.90;999.90;;;18.80;99.90;;;;;;5004553;28;20479;-70
2022/12/31 11:10:00;;;;;;;1999.90;999.90;;;18.80;99.90;;;;;;5005583;28;20469;-71
2022/12/31 11:12:56;;;;;;;1999.90;999.90;;;18.80;99.90;;;;;;5004214;28;20450;-70
2022/12/31 11:15:38;;;;;;;1999.90;999.90;;;18.90;99.90;;;;;;5005976;28;20453;-71
2022/12/31 11:18:15;;;;;;;1999.90;999.90;;;19.00;99.90;;;;;;5007693;28;20441;-69
2022/12/31 11:21:02;;;;;;;1999.90;999.90;;;19.00;99.90;;;;;;5001355;28;20955;-71
2022/12/31 11:23:36;;;;;;;1999.90;999.90;;;19.00;99.90;;;;;;5007926;28;20509;-70
2022/12/31 11:26:14;;;;;;;1999.90;999.90;;;19.10;99.90;;;;;;5005629;28;20473;-70
2022/12/31 11:29:14;;;;;;;1999.90;999.90;;;19.10;99.90;;;;;;5007008;28;20444;-70
2022/12/31 11:32:05;;;;;;;1999.90;999.90;;;19.10;99.90;;;;;;5006367;28;20537;-70
2022/12/31 11:34:51;;;;;;;1999.90;999.90;;;19.30;99.90;;;;;;5004427;28;20450;-69
2022/12/31 11:37:32;;;;;;;1999.90;999.90;;;19.30;99.90;;;;;;5006620;28;20472;-70
2022/12/31 11:40:14;;;;;;;1999.90;999.90;;;19.30;99.90;;;;;;5005844;28;20540;-70
2022/12/31 11:42:50;;;;;;;1999.90;999.90;;;19.30;99.90;;;;;;5008001;28;20484;-69
2022/12/31 11:45:31;;;;;;;1999.90;999.90;;;19.30;99.90;;;;;;5002546;28;20554;-70
2022/12/31 11:48:04;;;;;;;1999.90;999.90;;;19.30;99.90;;;;;;5007077;28;20452;-70
2022/12/31 11:50:39;;;;;;;1999.90;999.90;;;19.30;99.90;;;;;;5007768;28;20454;-69
2022/12/31 11:53:29;;;;;;;1999.90;999.90;;;19.40;99.90;;;;;;5009164;28;20503;-70
2022/12/31 11:56:09;;;;;;;1999.90;999.90;;;19.40;99.90;;;;;;5007376;28;20991;-70
2022/12/31 11:58:36;;;;;;;1999.90;999.90;;;19.40;99.90;;;;;;5008986;28;20442;-69
2022/12/31 12:01:09;;;;;;;1999.90;999.90;;;19.40;99.90;;;;;;5008192;28;20457;-69
2022/12/31 12:03:42;;;;;;;1999.90;999.90;;;19.40;99.90;;;;;;5003599;28;21313;-72
2022/12/31 12:06:11;;;;;;;1999.90;999.90;;;19.30;99.90;;;;;;5008852;28;20481;-70
2022/12/31 12:08:38;;;;;;;1999.90;999.90;;;19.30;99.90;;;;;;5008160;28;20483;-71
2022/12/31 12:11:08;;;;;;;1999.90;999.90;;;19.40;99.90;;;;;;5008707;28;20545;-71
2022/12/31 12:13:35;;;;;;;1999.90;999.90;;;19.40;99.90;;;;;;5006573;28;21111;-71
2022/12/31 12:16:06;;;;;;;1999.90;999.90;;;19.50;99.90;;;;;;5008136;28;21026;-71
2022/12/31 12:18:40;;;;;;;1999.90;999.90;;;19.50;99.90;;;;;;5008388;28;20907;-71
2022/12/31 12:21:11;;;;;;;1999.90;999.90;;;19.50;99.90;;;;;;5008931;28;20603;-70
2022/12/31 12:23:38;;;;;;;1999.90;999.90;;;19.50;99.90;;;;;;5003362;28;20494;-70
2022/12/31 12:26:06;;;;;;;1999.90;999.90;;;19.60;99.90;;;;;;5002721;28;20470;-71
2022/12/31 12:28:42;;;;;;;1999.90;999.90;;;19.60;99.90;;;;;;5007393;28;20457;-73
2022/12/31 12:31:19;;;;;;;1999.90;999.90;;;19.60;99.90;;;;;;5000610;28;20464;-72
2022/12/31 12:33:49;;;;;;;1999.90;999.90;;;19.70;99.90;;;;;;5009329;28;20533;-70
2022/12/31 12:36:19;;;;;;;1999.90;999.90;;;19.70;99.90;;;;;;5011644;28;20473;-71
2022/12/31 12:38:45;;;;;;;1999.90;999.90;;;19.70;99.90;;;;;;5013765;28;20505;-74
2022/12/31 12:41:20;;;;;;;1999.90;999.90;;;19.70;99.90;;;;;;5015598;28;20894;-70